sensor_id;sensor_type;location;lat;lon;timestamp;pressure;altitude;pressure_sealevel;temperature;humidity
19890;BME280;10107;51.198;6.824;2024-02-15T00:00:52;66534.84;;;10.49;100.00
19890;BME280;10107;51.198;6.824;2024-02-15T00:04:55;66506.84;;;10.53;100.00
19890;BME280;10107;51.198;6.824;2024-02-15T00:08:57;66567.94;;;10.53;100.00
19890;BME280;10107;51.198;6.824;2024-02-15T00:12:58;66528.78;;;10.56;100.00
19890;BME280;10107;51.198;6.824;2024-02-15T00:17:02;66541.41;;;10.60;100.00
19890;BME280;10107;51.198;6.824;2024-02-15T00:21:04;66548.44;;;10.61;100.00
19890;BME280;10107;51.198;6.824;2024-02-15T00:25:06;66529.44;;;10.61;100.00
19890;BME280;10107;51.198;6.824;2024-02-15T00:29:09;66546.41;;;10.62;100.00
19890;BME280;10107;51.198;6.824;2024-02-15T00:33:12;66571.84;;;10.63;100.00
19890;BME280;10107;51.198;6.824;2024-02-15T00:37:14;66535.00;;;10.63;100.00
19890;BME280;10107;51.198;6.824;2024-02-15T00:41:16;66566.59;;;10.63;100.00
19890;BME280;10107;51.198;6.824;2024-02-15T00:45:20;66525.69;;;10.64;100.00
19890;BME280;10107;51.198;6.824;2024-02-15T00:49:23;66551.72;;;10.66;100.00
19890;BME280;10107;51.198;6.824;2024-02-15T00:53:28;66579.78;;;10.68;100.00
19890;BME280;10107;51.198;6.824;2024-02-15T00:57:30;66542.94;;;10.68;100.00
19890;BME280;10107;51.198;6.824;2024-02-15T01:01:32;66549.09;;;10.66;100.00
19890;BME280;10107;51.198;6.824;2024-02-15T01:05:35;66573.94;;;10.67;100.00
19890;BME280;10107;51.198;6.824;2024-02-15T01:09:36;66572.16;;;10.66;100.00
19890;BME280;10107;51.198;6.824;2024-02-15T01:13:38;66531.19;;;10.62;100.00
19890;BME280;10107;51.198;6.824;2024-02-15T01:17:41;66555.41;;;10.58;100.00
19890;BME280;10107;51.198;6.824;2024-02-15T01:21:44;66563.25;;;10.54;100.00
19890;BME280;10107;51.198;6.824;2024-02-15T01:25:47;66563.22;;;10.49;100.00
19890;BME280;10107;51.198;6.824;2024-02-15T01:29:49;66527.50;;;10.45;100.00
19890;BME280;10107;51.198;6.824;2024-02-15T01:33:52;66521.31;;;10.42;100.00
19890;BME280;10107;51.198;6.824;2024-02-15T01:37:55;66536.78;;;10.40;100.00
19890;BME280;10107;51.198;6.824;2024-02-15T01:41:56;66563.34;;;10.38;100.00
19890;BME280;10107;51.198;6.824;2024-02-15T01:45:59;66527.13;;;10.38;100.00
19890;BME280;10107;51.198;6.824;2024-02-15T01:50:04;66537.09;;;10.42;100.00
19890;BME280;10107;51.198;6.824;2024-02-15T01:54:07;66522.53;;;10.43;100.00
19890;BME280;10107;51.198;6.824;2024-02-15T01:58:09;66576.91;;;10.45;100.00
19890;BME280;10107;51.198;6.824;2024-02-15T02:02:12;66508.81;;;10.47;100.00
19890;BME280;10107;51.198;6.824;2024-02-15T02:06:16;66557.34;;;10.48;100.00
19890;BME280;10107;51.198;6.824;2024-02-15T02:10:19;66532.22;;;10.49;100.00
19890;BME280;10107;51.198;6.824;2024-02-15T02:14:22;66569.63;;;10.50;100.00
19890;BME280;10107;51.198;6.824;2024-02-15T02:18:24;66567.00;;;10.50;100.00
19890;BME280;10107;51.198;6.824;2024-02-15T02:22:26;66527.28;;;10.52;100.00
19890;BME280;10107;51.198;6.824;2024-02-15T02:26:34;66566.47;;;10.54;100.00
19890;BME280;10107;51.198;6.824;2024-02-15T02:30:36;66549.78;;;10.51;100.00
19890;BME280;10107;51.198;6.824;2024-02-15T02:34:41;66558.22;;;10.47;100.00
19890;BME280;10107;51.198;6.824;2024-02-15T02:38:43;66538.03;;;10.45;100.00
19890;BME280;10107;51.198;6.824;2024-02-15T02:42:52;66541.81;;;10.46;100.00
19890;BME280;10107;51.198;6.824;2024-02-15T02:46:56;66498.31;;;10.47;100.00
19890;BME280;10107;51.198;6.824;2024-02-15T02:50:58;66535.13;;;10.47;100.00
19890;BME280;10107;51.198;6.824;2024-02-15T02:55:00;66537.19;;;10.47;100.00
19890;BME280;10107;51.198;6.824;2024-02-15T02:59:03;66561.38;;;10.43;100.00
19890;BME280;10107;51.198;6.824;2024-02-15T03:03:07;66534.44;;;10.38;100.00
19890;BME280;10107;51.198;6.824;2024-02-15T03:07:09;66540.50;;;10.32;100.00
19890;BME280;10107;51.198;6.824;2024-02-15T03:11:17;66539.22;;;10.26;100.00
19890;BME280;10107;51.198;6.824;2024-02-15T03:15:20;66546.81;;;10.23;100.00
19890;BME280;10107;51.198;6.824;2024-02-15T03:19:23;66519.00;;;10.20;100.00
19890;BME280;10107;51.198;6.824;2024-02-15T03:23:27;66488.00;;;10.16;100.00
19890;BME280;10107;51.198;6.824;2024-02-15T03:27:29;66479.19;;;10.13;100.00
19890;BME280;10107;51.198;6.824;2024-02-15T03:31:33;66534.06;;;10.10;100.00
19890;BME280;10107;51.198;6.824;2024-02-15T03:35:37;66540.19;;;10.08;100.00
19890;BME280;10107;51.198;6.824;2024-02-15T03:39:39;66490.50;;;10.06;100.00
19890;BME280;10107;51.198;6.824;2024-02-15T03:43:41;66475.59;;;10.05;100.00
19890;BME280;10107;51.198;6.824;2024-02-15T03:47:44;66511.81;;;10.04;100.00
19890;BME280;10107;51.198;6.824;2024-02-15T03:51:48;66505.44;;;10.08;100.00
19890;BME280;10107;51.198;6.824;2024-02-15T03:55:51;66503.13;;;10.10;100.00
19890;BME280;10107;51.198;6.824;2024-02-15T03:59:54;66523.88;;;10.13;100.00
19890;BME280;10107;51.198;6.824;2024-02-15T04:03:58;66479.53;;;10.15;100.00
19890;BME280;10107;51.198;6.824;2024-02-15T04:08:03;66491.78;;;10.17;100.00
19890;BME280;10107;51.198;6.824;2024-02-15T04:12:06;66514.88;;;10.16;100.00
19890;BME280;10107;51.198;6.824;2024-02-15T04:16:08;66475.69;;;10.14;100.00
19890;BME280;10107;51.198;6.824;2024-02-15T04:20:11;66519.53;;;10.16;100.00
19890;BME280;10107;51.198;6.824;2024-02-15T04:24:14;66537.94;;;10.16;100.00
19890;BME280;10107;51.198;6.824;2024-02-15T04:28:16;66523.41;;;10.21;100.00
19890;BME280;10107;51.198;6.824;2024-02-15T04:32:18;66533.06;;;10.23;100.00
19890;BME280;10107;51.198;6.824;2024-02-15T04:36:22;66488.41;;;10.27;100.00
19890;BME280;10107;51.198;6.824;2024-02-15T04:40:25;66529.63;;;10.29;100.00
19890;BME280;10107;51.198;6.824;2024-02-15T04:44:27;66559.16;;;10.29;100.00
19890;BME280;10107;51.198;6.824;2024-02-15T04:48:28;66503.09;;;10.31;100.00
19890;BME280;10107;51.198;6.824;2024-02-15T04:52:31;66541.41;;;10.35;100.00
19890;BME280;10107;51.198;6.824;2024-02-15T04:56:33;66526.84;;;10.40;100.00
19890;BME280;10107;51.198;6.824;2024-02-15T05:00:36;66548.16;;;10.38;100.00
19890;BME280;10107;51.198;6.824;2024-02-15T05:04:38;66531.81;;;10.38;100.00
19890;BME280;10107;51.198;6.824;2024-02-15T05:08:44;66518.06;;;10.37;100.00
19890;BME280;10107;51.198;6.824;2024-02-15T05:12:47;66546.66;;;10.35;100.00
19890;BME280;10107;51.198;6.824;2024-02-15T05:16:49;66543.72;;;10.32;100.00
19890;BME280;10107;51.198;6.824;2024-02-15T05:20:52;66547.81;;;10.31;100.00
19890;BME280;10107;51.198;6.824;2024-02-15T05:24:55;66523.25;;;10.33;100.00
19890;BME280;10107;51.198;6.824;2024-02-15T05:28:57;66515.97;;;10.33;100.00
19890;BME280;10107;51.198;6.824;2024-02-15T05:32:59;66549.56;;;10.33;100.00
19890;BME280;10107;51.198;6.824;2024-02-15T05:37:01;66539.91;;;10.31;100.00
19890;BME280;10107;51.198;6.824;2024-02-15T05:41:05;66532.03;;;10.31;100.00
19890;BME280;10107;51.198;6.824;2024-02-15T05:45:29;66534.66;;;10.31;100.00
19890;BME280;10107;51.198;6.824;2024-02-15T05:49:33;66539.31;;;10.30;100.00
19890;BME280;10107;51.198;6.824;2024-02-15T05:53:35;66536.09;;;10.30;100.00
19890;BME280;10107;51.198;6.824;2024-02-15T05:57:38;66538.97;;;10.28;100.00
19890;BME280;10107;51.198;6.824;2024-02-15T06:01:40;66564.41;;;10.29;100.00
19890;BME280;10107;51.198;6.824;2024-02-15T06:05:42;66492.56;;;10.31;100.00
19890;BME280;10107;51.198;6.824;2024-02-15T06:09:45;66551.91;;;10.35;100.00
19890;BME280;10107;51.198;6.824;2024-02-15T06:13:48;66546.38;;;10.37;100.00
19890;BME280;10107;51.198;6.824;2024-02-15T06:17:50;66511.63;;;10.36;100.00
19890;BME280;10107;51.198;6.824;2024-02-15T06:21:51;66502.56;;;10.35;100.00
19890;BME280;10107;51.198;6.824;2024-02-15T06:25:54;66560.69;;;10.33;100.00
19890;BME280;10107;51.198;6.824;2024-02-15T06:29:57;66543.13;;;10.32;100.00
19890;BME280;10107;51.198;6.824;2024-02-15T06:34:16;66535.81;;;10.32;100.00
19890;BME280;10107;51.198;6.824;2024-02-15T06:38:37;66517.16;;;10.34;100.00
19890;BME280;10107;51.198;6.824;2024-02-15T06:43:00;66557.19;;;10.35;100.00
19890;BME280;10107;51.198;6.824;2024-02-15T06:47:03;66513.06;;;10.35;100.00
19890;BME280;10107;51.198;6.824;2024-02-15T06:51:06;66561.00;;;10.36;100.00
19890;BME280;10107;51.198;6.824;2024-02-15T06:55:13;66555.47;;;10.38;100.00
19890;BME280;10107;51.198;6.824;2024-02-15T06:59:15;66512.19;;;10.37;100.00
19890;BME280;10107;51.198;6.824;2024-02-15T07:03:20;66550.78;;;10.38;100.00
19890;BME280;10107;51.198;6.824;2024-02-15T07:07:22;66545.53;;;10.38;100.00
19890;BME280;10107;51.198;6.824;2024-02-15T07:11:24;66541.47;;;10.39;100.00
19890;BME280;10107;51.198;6.824;2024-02-15T07:15:26;66563.41;;;10.42;100.00
19890;BME280;10107;51.198;6.824;2024-02-15T07:19:29;66585.66;;;10.43;100.00
19890;BME280;10107;51.198;6.824;2024-02-15T07:23:33;66542.75;;;10.49;100.00
19890;BME280;10107;51.198;6.824;2024-02-15T07:27:35;66566.75;;;10.52;100.00
19890;BME280;10107;51.198;6.824;2024-02-15T07:31:37;66582.59;;;10.57;100.00
19890;BME280;10107;51.198;6.824;2024-02-15T07:35:41;66576.72;;;10.56;100.00
19890;BME280;10107;51.198;6.824;2024-02-15T07:39:44;66579.09;;;10.58;100.00
19890;BME280;10107;51.198;6.824;2024-02-15T07:43:45;66584.09;;;10.60;100.00
19890;BME280;10107;51.198;6.824;2024-02-15T07:47:47;66576.00;;;10.67;100.00
19890;BME280;10107;51.198;6.824;2024-02-15T07:51:51;66587.16;;;10.72;100.00
19890;BME280;10107;51.198;6.824;2024-02-15T07:55:53;66584.50;;;10.72;100.00
19890;BME280;10107;51.198;6.824;2024-02-15T07:59:55;66566.91;;;10.66;100.00
19890;BME280;10107;51.198;6.824;2024-02-15T08:03:58;66557.19;;;10.60;100.00
19890;BME280;10107;51.198;6.824;2024-02-15T08:08:01;66580.56;;;10.57;100.00
19890;BME280;10107;51.198;6.824;2024-02-15T08:12:05;66580.81;;;10.55;100.00
19890;BME280;10107;51.198;6.824;2024-02-15T08:16:07;66581.72;;;10.58;100.00
19890;BME280;10107;51.198;6.824;2024-02-15T08:20:10;66598.16;;;10.63;100.00
19890;BME280;10107;51.198;6.824;2024-02-15T08:24:13;66537.75;;;10.73;100.00
19890;BME280;10107;51.198;6.824;2024-02-15T08:28:15;66584.59;;;10.77;100.00
19890;BME280;10107;51.198;6.824;2024-02-15T08:32:16;66584.03;;;10.81;100.00
19890;BME280;10107;51.198;6.824;2024-02-15T08:36:19;66575.34;;;10.87;100.00
19890;BME280;10107;51.198;6.824;2024-02-15T08:40:22;66593.22;;;10.91;100.00
19890;BME280;10107;51.198;6.824;2024-02-15T08:44:25;66608.84;;;11.02;100.00
19890;BME280;10107;51.198;6.824;2024-02-15T08:48:27;66627.91;;;11.07;100.00
19890;BME280;10107;51.198;6.824;2024-02-15T08:52:31;66611.53;;;11.07;100.00
19890;BME280;10107;51.198;6.824;2024-02-15T08:56:35;66619.38;;;11.02;100.00
19890;BME280;10107;51.198;6.824;2024-02-15T09:00:37;66621.44;;;11.02;100.00
19890;BME280;10107;51.198;6.824;2024-02-15T09:04:44;66603.63;;;11.07;100.00
19890;BME280;10107;51.198;6.824;2024-02-15T09:08:46;66596.81;;;11.24;100.00
19890;BME280;10107;51.198;6.824;2024-02-15T09:12:49;66609.19;;;11.35;100.00
19890;BME280;10107;51.198;6.824;2024-02-15T09:16:51;66658.16;;;11.43;100.00
19890;BME280;10107;51.198;6.824;2024-02-15T09:20:53;66671.44;;;11.52;100.00
19890;BME280;10107;51.198;6.824;2024-02-15T09:24:56;66667.19;;;11.64;100.00
19890;BME280;10107;51.198;6.824;2024-02-15T09:28:59;66646.03;;;11.85;100.00
19890;BME280;10107;51.198;6.824;2024-02-15T09:33:01;66736.78;;;12.06;100.00
19890;BME280;10107;51.198;6.824;2024-02-15T09:37:05;66711.38;;;12.14;100.00
19890;BME280;10107;51.198;6.824;2024-02-15T09:41:06;66705.31;;;12.25;100.00
19890;BME280;10107;51.198;6.824;2024-02-15T09:45:12;66720.38;;;12.36;100.00
19890;BME280;10107;51.198;6.824;2024-02-15T09:49:15;66747.53;;;12.55;100.00
19890;BME280;10107;51.198;6.824;2024-02-15T09:53:21;66747.31;;;12.61;100.00
19890;BME280;10107;51.198;6.824;2024-02-15T09:57:23;66754.63;;;12.61;100.00
19890;BME280;10107;51.198;6.824;2024-02-15T10:01:31;66763.50;;;12.68;100.00
19890;BME280;10107;51.198;6.824;2024-02-15T10:05:33;66789.31;;;12.68;100.00
19890;BME280;10107;51.198;6.824;2024-02-15T10:09:35;66791.19;;;12.79;100.00
19890;BME280;10107;51.198;6.824;2024-02-15T10:13:38;66778.84;;;12.77;100.00
19890;BME280;10107;51.198;6.824;2024-02-15T10:17:41;66764.69;;;12.70;100.00
19890;BME280;10107;51.198;6.824;2024-02-15T10:21:55;66791.31;;;12.63;100.00
19890;BME280;10107;51.198;6.824;2024-02-15T10:26:21;66771.00;;;12.57;100.00
19890;BME280;10107;51.198;6.824;2024-02-15T10:30:23;66768.03;;;12.50;100.00
19890;BME280;10107;51.198;6.824;2024-02-15T10:34:28;66772.38;;;12.46;100.00
19890;BME280;10107;51.198;6.824;2024-02-15T10:38:30;66791.81;;;12.54;100.00
19890;BME280;10107;51.198;6.824;2024-02-15T10:42:32;66798.19;;;12.76;100.00
19890;BME280;10107;51.198;6.824;2024-02-15T10:46:35;66807.38;;;12.86;100.00
19890;BME280;10107;51.198;6.824;2024-02-15T10:50:40;66806.09;;;13.05;100.00
19890;BME280;10107;51.198;6.824;2024-02-15T10:54:46;66835.72;;;13.31;100.00
19890;BME280;10107;51.198;6.824;2024-02-15T10:58:50;66838.19;;;13.47;100.00
19890;BME280;10107;51.198;6.824;2024-02-15T11:03:00;66903.91;;;13.70;100.00
19890;BME280;10107;51.198;6.824;2024-02-15T11:07:07;66889.34;;;13.84;100.00
19890;BME280;10107;51.198;6.824;2024-02-15T11:11:11;66931.28;;;14.07;100.00
19890;BME280;10107;51.198;6.824;2024-02-15T11:15:42;66999.88;;;14.53;100.00
19890;BME280;10107;51.198;6.824;2024-02-15T11:19:49;66958.22;;;15.06;100.00
19890;BME280;10107;51.198;6.824;2024-02-15T11:23:52;67060.50;;;15.19;100.00
19890;BME280;10107;51.198;6.824;2024-02-15T11:27:54;67037.31;;;15.33;100.00
19890;BME280;10107;51.198;6.824;2024-02-15T11:31:57;67053.31;;;15.47;100.00
19890;BME280;10107;51.198;6.824;2024-02-15T11:36:03;67045.44;;;15.56;100.00
19890;BME280;10107;51.198;6.824;2024-02-15T11:40:07;67103.00;;;15.72;100.00
19890;BME280;10107;51.198;6.824;2024-02-15T11:44:15;67140.56;;;16.27;100.00
19890;BME280;10107;51.198;6.824;2024-02-15T11:48:17;67194.47;;;17.13;100.00
19890;BME280;10107;51.198;6.824;2024-02-15T11:52:19;67230.19;;;17.76;100.00
19890;BME280;10107;51.198;6.824;2024-02-15T11:56:22;67335.50;;;18.42;100.00
19890;BME280;10107;51.198;6.824;2024-02-15T12:00:24;67414.63;;;18.71;100.00
19890;BME280;10107;51.198;6.824;2024-02-15T12:04:43;67415.13;;;18.44;100.00
19890;BME280;10107;51.198;6.824;2024-02-15T12:09:03;67344.75;;;17.94;100.00
19890;BME280;10107;51.198;6.824;2024-02-15T12:13:23;67302.53;;;17.53;100.00
19890;BME280;10107;51.198;6.824;2024-02-15T12:17:43;67297.00;;;17.21;100.00
19890;BME280;10107;51.198;6.824;2024-02-15T12:22:02;67305.84;;;17.15;100.00
19890;BME280;10107;51.198;6.824;2024-02-15T12:26:05;67266.44;;;16.97;100.00
19890;BME280;10107;51.198;6.824;2024-02-15T12:30:13;67248.41;;;16.93;100.00
19890;BME280;10107;51.198;6.824;2024-02-15T12:34:20;67186.91;;;16.81;100.00
19890;BME280;10107;51.198;6.824;2024-02-15T12:38:22;67175.00;;;16.66;100.00
19890;BME280;10107;51.198;6.824;2024-02-15T12:42:23;67235.94;;;16.43;100.00
19890;BME280;10107;51.198;6.824;2024-02-15T12:46:27;67194.63;;;16.44;100.00
19890;BME280;10107;51.198;6.824;2024-02-15T12:50:29;67178.13;;;16.48;100.00
19890;BME280;10107;51.198;6.824;2024-02-15T12:54:31;67188.16;;;16.43;100.00
19890;BME280;10107;51.198;6.824;2024-02-15T12:58:33;67203.06;;;16.26;100.00
19890;BME280;10107;51.198;6.824;2024-02-15T13:02:36;67195.66;;;16.17;100.00
19890;BME280;10107;51.198;6.824;2024-02-15T13:06:38;67159.56;;;16.04;100.00
19890;BME280;10107;51.198;6.824;2024-02-15T13:10:39;67153.88;;;15.93;100.00
19890;BME280;10107;51.198;6.824;2024-02-15T13:14:41;67131.03;;;15.75;100.00
19890;BME280;10107;51.198;6.824;2024-02-15T13:18:44;67118.09;;;15.78;100.00
19890;BME280;10107;51.198;6.824;2024-02-15T13:22:47;67134.91;;;15.81;100.00
19890;BME280;10107;51.198;6.824;2024-02-15T13:26:49;67153.22;;;15.83;100.00
19890;BME280;10107;51.198;6.824;2024-02-15T13:30:51;67128.25;;;15.96;100.00
19890;BME280;10107;51.198;6.824;2024-02-15T13:34:57;67171.59;;;15.99;100.00
19890;BME280;10107;51.198;6.824;2024-02-15T13:39:07;67151.81;;;15.93;100.00
19890;BME280;10107;51.198;6.824;2024-02-15T13:43:09;67162.13;;;15.91;100.00
19890;BME280;10107;51.198;6.824;2024-02-15T13:47:11;67116.09;;;15.88;100.00
19890;BME280;10107;51.198;6.824;2024-02-15T13:51:14;67131.72;;;15.85;100.00
19890;BME280;10107;51.198;6.824;2024-02-15T13:55:17;67145.03;;;15.90;100.00
19890;BME280;10107;51.198;6.824;2024-02-15T13:59:19;67148.38;;;16.09;100.00
19890;BME280;10107;51.198;6.824;2024-02-15T14:03:20;67129.31;;;16.22;100.00
19890;BME280;10107;51.198;6.824;2024-02-15T14:07:24;67160.66;;;16.35;100.00
19890;BME280;10107;51.198;6.824;2024-02-15T14:11:26;67188.09;;;16.34;100.00
19890;BME280;10107;51.198;6.824;2024-02-15T14:15:28;67174.16;;;16.24;100.00
19890;BME280;10107;51.198;6.824;2024-02-15T14:19:30;67187.03;;;16.08;100.00
19890;BME280;10107;51.198;6.824;2024-02-15T14:23:33;67132.72;;;16.02;100.00
19890;BME280;10107;51.198;6.824;2024-02-15T14:27:34;67183.38;;;15.95;100.00
19890;BME280;10107;51.198;6.824;2024-02-15T14:31:36;67130.31;;;15.95;100.00
19890;BME280;10107;51.198;6.824;2024-02-15T14:35:55;67134.16;;;15.96;100.00
19890;BME280;10107;51.198;6.824;2024-02-15T14:40:01;67160.69;;;15.96;100.00
19890;BME280;10107;51.198;6.824;2024-02-15T14:44:04;67170.75;;;16.05;100.00
19890;BME280;10107;51.198;6.824;2024-02-15T14:48:06;67129.22;;;16.08;100.00
19890;BME280;10107;51.198;6.824;2024-02-15T14:52:09;67145.03;;;15.94;100.00
19890;BME280;10107;51.198;6.824;2024-02-15T14:56:14;67137.88;;;15.83;100.00
19890;BME280;10107;51.198;6.824;2024-02-15T15:00:16;67146.09;;;15.77;100.00
19890;BME280;10107;51.198;6.824;2024-02-15T15:04:19;67121.19;;;15.60;100.00
19890;BME280;10107;51.198;6.824;2024-02-15T15:08:21;67111.69;;;15.52;100.00
19890;BME280;10107;51.198;6.824;2024-02-15T15:12:42;67087.44;;;15.40;100.00
19890;BME280;10107;51.198;6.824;2024-02-15T15:16:46;67091.78;;;15.28;100.00
19890;BME280;10107;51.198;6.824;2024-02-15T15:20:51;67105.84;;;15.17;100.00
19890;BME280;10107;51.198;6.824;2024-02-15T15:24:52;67065.06;;;15.04;100.00
19890;BME280;10107;51.198;6.824;2024-02-15T15:28:55;67044.09;;;14.93;100.00
19890;BME280;10107;51.198;6.824;2024-02-15T15:32:57;67023.41;;;14.84;100.00
19890;BME280;10107;51.198;6.824;2024-02-15T15:36:59;67040.09;;;14.74;100.00
19890;BME280;10107;51.198;6.824;2024-02-15T15:41:01;67043.31;;;14.70;100.00
19890;BME280;10107;51.198;6.824;2024-02-15T15:45:06;67025.63;;;14.68;100.00
19890;BME280;10107;51.198;6.824;2024-02-15T15:49:09;66978.19;;;14.61;100.00
19890;BME280;10107;51.198;6.824;2024-02-15T15:53:11;66977.22;;;14.54;100.00
19890;BME280;10107;51.198;6.824;2024-02-15T15:57:12;66986.34;;;14.50;100.00
19890;BME280;10107;51.198;6.824;2024-02-15T16:01:16;66968.66;;;14.49;100.00
19890;BME280;10107;51.198;6.824;2024-02-15T16:05:19;67005.72;;;14.49;100.00
19890;BME280;10107;51.198;6.824;2024-02-15T16:09:20;67012.47;;;14.48;100.00
19890;BME280;10107;51.198;6.824;2024-02-15T16:13:23;66985.97;;;14.43;100.00
19890;BME280;10107;51.198;6.824;2024-02-15T16:17:27;66967.13;;;14.40;100.00
19890;BME280;10107;51.198;6.824;2024-02-15T16:21:30;66998.81;;;14.31;100.00
19890;BME280;10107;51.198;6.824;2024-02-15T16:25:31;66961.41;;;14.24;100.00
19890;BME280;10107;51.198;6.824;2024-02-15T16:29:34;66948.69;;;14.15;100.00
19890;BME280;10107;51.198;6.824;2024-02-15T16:33:37;66949.81;;;14.12;100.00
19890;BME280;10107;51.198;6.824;2024-02-15T16:37:39;66950.28;;;13.98;100.00
19890;BME280;10107;51.198;6.824;2024-02-15T16:41:45;66961.13;;;13.92;100.00
19890;BME280;10107;51.198;6.824;2024-02-15T16:45:47;66937.22;;;13.82;100.00
19890;BME280;10107;51.198;6.824;2024-02-15T16:49:50;66930.06;;;13.72;100.00
19890;BME280;10107;51.198;6.824;2024-02-15T16:53:52;66900.03;;;13.64;100.00
19890;BME280;10107;51.198;6.824;2024-02-15T16:57:53;66894.69;;;13.59;100.00
19890;BME280;10107;51.198;6.824;2024-02-15T17:02:01;66876.97;;;13.49;100.00
19890;BME280;10107;51.198;6.824;2024-02-15T17:06:04;66905.69;;;13.41;100.00
19890;BME280;10107;51.198;6.824;2024-02-15T17:10:07;66892.13;;;13.34;100.00
19890;BME280;10107;51.198;6.824;2024-02-15T17:14:08;66838.28;;;13.26;100.00
19890;BME280;10107;51.198;6.824;2024-02-15T17:18:11;66858.16;;;13.16;100.00
19890;BME280;10107;51.198;6.824;2024-02-15T17:22:14;66832.53;;;13.10;100.00
19890;BME280;10107;51.198;6.824;2024-02-15T17:26:16;66825.44;;;13.04;100.00
19890;BME280;10107;51.198;6.824;2024-02-15T17:30:19;66843.03;;;13.01;100.00
19890;BME280;10107;51.198;6.824;2024-02-15T17:34:22;66841.22;;;12.95;100.00
19890;BME280;10107;51.198;6.824;2024-02-15T17:38:25;66835.03;;;12.92;100.00
19890;BME280;10107;51.198;6.824;2024-02-15T17:42:27;66829.09;;;12.86;100.00
19890;BME280;10107;51.198;6.824;2024-02-15T17:46:29;66820.00;;;12.85;100.00
19890;BME280;10107;51.198;6.824;2024-02-15T17:50:31;66825.81;;;12.81;100.00
19890;BME280;10107;51.198;6.824;2024-02-15T17:54:36;66805.56;;;12.80;100.00
19890;BME280;10107;51.198;6.824;2024-02-15T17:58:38;66805.19;;;12.73;100.00
19890;BME280;10107;51.198;6.824;2024-02-15T18:02:40;66791.09;;;12.70;100.00
19890;BME280;10107;51.198;6.824;2024-02-15T18:06:43;66801.66;;;12.70;100.00
19890;BME280;10107;51.198;6.824;2024-02-15T18:10:46;66800.53;;;12.73;100.00
19890;BME280;10107;51.198;6.824;2024-02-15T18:14:48;66812.31;;;12.79;100.00
19890;BME280;10107;51.198;6.824;2024-02-15T18:18:51;66816.09;;;12.75;100.00
19890;BME280;10107;51.198;6.824;2024-02-15T18:22:52;66769.44;;;12.74;100.00
19890;BME280;10107;51.198;6.824;2024-02-15T18:26:56;66830.72;;;12.74;100.00
19890;BME280;10107;51.198;6.824;2024-02-15T18:30:59;66805.47;;;12.71;100.00
19890;BME280;10107;51.198;6.824;2024-02-15T18:35:00;66787.91;;;12.74;100.00
19890;BME280;10107;51.198;6.824;2024-02-15T18:39:02;66792.25;;;12.71;100.00
19890;BME280;10107;51.198;6.824;2024-02-15T18:43:07;66770.56;;;12.70;100.00
19890;BME280;10107;51.198;6.824;2024-02-15T18:47:08;66773.75;;;12.66;100.00
19890;BME280;10107;51.198;6.824;2024-02-15T18:51:14;66810.31;;;12.59;100.00
19890;BME280;10107;51.198;6.824;2024-02-15T18:55:16;66777.78;;;12.60;100.00
19890;BME280;10107;51.198;6.824;2024-02-15T18:59:19;66794.50;;;12.59;100.00
19890;BME280;10107;51.198;6.824;2024-02-15T19:03:21;66770.13;;;12.54;100.00
19890;BME280;10107;51.198;6.824;2024-02-15T19:07:23;66760.09;;;12.50;100.00
19890;BME280;10107;51.198;6.824;2024-02-15T19:11:24;66778.25;;;12.47;100.00
19890;BME280;10107;51.198;6.824;2024-02-15T19:15:28;66794.63;;;12.43;100.00
19890;BME280;10107;51.198;6.824;2024-02-15T19:19:30;66787.91;;;12.44;100.00
19890;BME280;10107;51.198;6.824;2024-02-15T19:23:33;66774.13;;;12.43;100.00
19890;BME280;10107;51.198;6.824;2024-02-15T19:27:35;66764.34;;;12.37;100.00
19890;BME280;10107;51.198;6.824;2024-02-15T19:31:38;66778.97;;;12.32;100.00
19890;BME280;10107;51.198;6.824;2024-02-15T19:35:40;66765.72;;;12.27;100.00
19890;BME280;10107;51.198;6.824;2024-02-15T19:39:42;66748.19;;;12.30;100.00
19890;BME280;10107;51.198;6.824;2024-02-15T19:43:46;66772.50;;;12.31;100.00
19890;BME280;10107;51.198;6.824;2024-02-15T19:47:53;66768.94;;;12.27;100.00
19890;BME280;10107;51.198;6.824;2024-02-15T19:52:07;66691.84;;;12.27;100.00
19890;BME280;10107;51.198;6.824;2024-02-15T19:56:09;66729.06;;;12.25;100.00
19890;BME280;10107;51.198;6.824;2024-02-15T20:00:12;66727.28;;;12.23;100.00
19890;BME280;10107;51.198;6.824;2024-02-15T20:04:15;66713.47;;;12.18;100.00
19890;BME280;10107;51.198;6.824;2024-02-15T20:08:18;66734.19;;;12.11;100.00
19890;BME280;10107;51.198;6.824;2024-02-15T20:12:19;66720.38;;;12.06;100.00
19890;BME280;10107;51.198;6.824;2024-02-15T20:16:21;66749.91;;;12.02;100.00
19890;BME280;10107;51.198;6.824;2024-02-15T20:20:23;66728.50;;;11.99;100.00
19890;BME280;10107;51.198;6.824;2024-02-15T20:24:26;66745.53;;;12.00;100.00
19890;BME280;10107;51.198;6.824;2024-02-15T20:28:28;66705.03;;;11.97;100.00
19890;BME280;10107;51.198;6.824;2024-02-15T20:32:29;66703.53;;;11.94;100.00
19890;BME280;10107;51.198;6.824;2024-02-15T20:36:32;66697.00;;;11.88;100.00
19890;BME280;10107;51.198;6.824;2024-02-15T20:40:35;66728.06;;;11.87;100.00
19890;BME280;10107;51.198;6.824;2024-02-15T20:44:37;66751.75;;;11.83;100.00
19890;BME280;10107;51.198;6.824;2024-02-15T20:48:40;66709.78;;;11.76;100.00
19890;BME280;10107;51.198;6.824;2024-02-15T20:52:41;66683.09;;;11.74;100.00
19890;BME280;10107;51.198;6.824;2024-02-15T20:56:45;66702.69;;;11.70;100.00
19890;BME280;10107;51.198;6.824;2024-02-15T21:00:48;66681.81;;;11.63;100.00
19890;BME280;10107;51.198;6.824;2024-02-15T21:04:49;66688.88;;;11.65;100.00
19890;BME280;10107;51.198;6.824;2024-02-15T21:08:52;66687.38;;;11.61;100.00
19890;BME280;10107;51.198;6.824;2024-02-15T21:12:56;66716.56;;;11.55;100.00